Time;durP1;ratioP1;P1;durP2;ratioP2;P2;SDS_P1;SDS_P2;PMS_P1;PMS_P2;Temp;Humidity;BMP_temperature;BMP_pressure;BME280_temperature;BME280_humidity;BME280_pressure;Samples;Min_cycle;Max_cycle;Signal;HPM_P1;HPM_P2
2022/03/02 00:00:24;;;;;;;20.10;9.57;;;;;;;-3.37;100.00;95505.91;4973017;28;20401;-63
2022/03/02 00:02:49;;;;;;;19.92;9.90;;;;;;;-3.42;100.00;95506.41;4972665;28;20030;-63
2022/03/02 00:05:21;;;;;;;16.52;9.25;;;;;;;-3.46;100.00;95499.06;4991398;28;20034;-63
2022/03/02 00:07:46;;;;;;;19.92;10.00;;;;;;;-3.45;100.00;95498.91;4976161;28;20030;-63
2022/03/02 00:10:12;;;;;;;16.65;9.70;;;;;;;-3.40;100.00;95503.63;4974279;28;20057;-62
2022/03/02 00:12:43;;;;;;;16.38;9.05;;;;;;;-3.36;100.00;95497.91;4958808;28;20070;-62
2022/03/02 00:15:12;;;;;;;17.23;9.40;;;;;;;-3.25;100.00;95501.94;4957940;28;20112;-62
2022/03/02 00:17:37;;;;;;;18.38;10.02;;;;;;;-3.21;100.00;95493.56;4976164;28;20019;-62
2022/03/02 00:20:04;;;;;;;18.50;9.52;;;;;;;-3.16;100.00;95493.06;4976015;28;20038;-62
2022/03/02 00:22:33;;;;;;;19.13;10.30;;;;;;;-3.17;100.00;95491.41;4974910;28;20501;-62
2022/03/02 00:24:58;;;;;;;17.90;9.45;;;;;;;-3.18;100.00;95492.41;4955326;28;20065;-61
2022/03/02 00:27:32;;;;;;;16.55;9.45;;;;;;;-3.22;100.00;95491.13;4971384;28;20097;-61
2022/03/02 00:30:00;;;;;;;23.13;10.68;;;;;;;-3.23;100.00;95502.59;4958648;28;20568;-62
2022/03/02 00:32:28;;;;;;;19.42;9.30;;;;;;;-3.26;100.00;95503.75;4975841;28;20030;-61
2022/03/02 00:34:53;;;;;;;18.08;9.18;;;;;;;-3.25;100.00;95502.78;4974740;28;20058;-60
2022/03/02 00:37:21;;;;;;;16.88;9.25;;;;;;;-3.24;100.00;95503.59;4958436;28;20050;-61
2022/03/02 00:39:46;;;;;;;15.85;8.75;;;;;;;-3.31;100.00;95508.66;4957101;28;20128;-60
2022/03/02 00:42:12;;;;;;;19.08;8.98;;;;;;;-3.43;100.00;95501.34;4975600;28;20054;-62
2022/03/02 00:44:40;;;;;;;16.75;9.82;;;;;;;-3.52;100.00;95500.53;4958406;28;20027;-61
2022/03/02 00:47:06;;;;;;;18.13;9.23;;;;;;;-3.61;100.00;95491.88;4975669;28;20497;-61
2022/03/02 00:49:33;;;;;;;15.13;8.80;;;;;;;-3.71;100.00;95488.63;4975587;28;20035;-61
2022/03/02 00:51:59;;;;;;;17.92;9.32;;;;;;;-3.74;100.00;95482.94;4974525;28;20026;-63
2022/03/02 00:54:27;;;;;;;15.85;9.38;;;;;;;-3.74;100.00;95477.69;4975264;28;20027;-60
2022/03/02 00:56:59;;;;;;;19.25;10.05;;;;;;;-3.68;100.00;95472.63;4974324;28;20026;-60
2022/03/02 00:59:24;;;;;;;17.33;9.35;;;;;;;-3.65;100.00;95476.69;4974111;28;20034;-59
2022/03/02 01:01:52;;;;;;;20.90;9.48;;;;;;;-3.69;100.00;95480.63;4975192;28;20425;-60
2022/03/02 01:04:18;;;;;;;20.02;9.57;;;;;;;-3.74;100.00;95483.75;4972995;28;20106;-60
2022/03/02 01:06:49;;;;;;;17.63;9.95;;;;;;;-3.82;100.00;95488.97;4975360;28;20113;-61
2022/03/02 01:09:15;;;;;;;19.25;9.65;;;;;;;-3.90;100.00;95482.00;4956778;28;20077;-60
2022/03/02 01:11:43;;;;;;;18.65;10.13;;;;;;;-3.93;100.00;95489.34;4957657;28;20046;-59
2022/03/02 01:14:09;;;;;;;16.52;9.38;;;;;;;-3.98;100.00;95484.59;4974511;28;20395;-58
2022/03/02 01:16:34;;;;;;;16.08;8.93;;;;;;;-4.06;100.00;95479.38;4973820;28;20126;-59
2022/03/02 01:19:00;;;;;;;17.95;9.10;;;;;;;-4.12;100.00;95477.44;4957727;28;20023;-58
2022/03/02 01:21:25;;;;;;;19.08;9.73;;;;;;;-4.20;100.00;95480.88;4973436;28;20031;-58
2022/03/02 01:23:53;;;;;;;16.83;9.10;;;;;;;-4.27;100.00;95477.25;4974293;28;20029;-55
2022/03/02 01:26:29;;;;;;;16.80;8.65;;;;;;;-4.33;100.00;95477.94;4974739;28;20113;-57
2022/03/02 01:28:55;;;;;;;17.42;9.10;;;;;;;-4.37;100.00;95471.38;4974039;28;20034;-58
2022/03/02 01:31:26;;;;;;;19.85;9.52;;;;;;;-4.41;100.00;95472.69;4973814;28;20033;-58
2022/03/02 01:33:53;;;;;;;19.60;9.10;;;;;;;-4.45;100.00;95463.53;4970549;28;20077;-58
2022/03/02 01:36:19;;;;;;;18.35;9.63;;;;;;;-4.50;100.00;95460.59;4973202;28;20406;-58
2022/03/02 01:38:45;;;;;;;16.58;8.90;;;;;;;-4.53;100.00;95464.34;4973237;28;20367;-60
2022/03/02 01:41:18;;;;;;;18.38;9.07;;;;;;;-4.58;100.00;95461.41;4974401;28;20073;-55
2022/03/02 01:43:45;;;;;;;20.60;9.32;;;;;;;-4.61;100.00;95463.53;4972554;28;20086;-59
2022/03/02 01:46:18;;;;;;;19.40;9.88;;;;;;;-4.63;100.00;95452.41;4973927;28;20027;-60
2022/03/02 01:48:44;;;;;;;20.15;9.32;;;;;;;-4.60;100.00;95452.91;4974997;28;20070;-56
2022/03/02 01:51:11;;;;;;;15.38;8.93;;;;;;;-4.57;100.00;95455.19;4972548;28;20043;-57
2022/03/02 01:53:36;;;;;;;20.48;10.20;;;;;;;-4.57;100.00;95456.97;4974291;28;20145;-59
2022/03/02 01:56:02;;;;;;;21.90;10.23;;;;;;;-4.57;100.00;95446.53;4989118;28;20054;-58
2022/03/02 01:58:28;;;;;;;17.38;9.60;;;;;;;-4.58;100.00;95444.91;4973920;28;20105;-56
2022/03/02 02:00:57;;;;;;;23.33;10.40;;;;;;;-4.57;100.00;95441.31;4974570;28;20023;-58
2022/03/02 02:03:26;;;;;;;19.08;9.68;;;;;;;-4.56;100.00;95435.09;4973660;28;20031;-57
2022/03/02 02:05:52;;;;;;;16.30;9.10;;;;;;;-4.54;100.00;95438.38;4974187;28;20438;-58
2022/03/02 02:08:18;;;;;;;17.70;9.23;;;;;;;-4.55;100.00;95439.38;4974327;28;20023;-55
2022/03/02 02:10:46;;;;;;;16.52;9.13;;;;;;;-4.60;100.00;95441.63;4973916;28;20117;-54
2022/03/02 02:13:21;;;;;;;15.50;9.20;;;;;;;-4.62;100.00;95436.56;4974071;28;20031;-53
2022/03/02 02:16:00;;;;;;;22.70;9.70;;;;;;;-4.62;100.00;95440.97;4973715;28;20449;-58
2022/03/02 02:18:28;;;;;;;19.20;9.60;;;;;;;-4.64;100.00;95440.34;4967252;28;20078;-53
2022/03/02 02:20:53;;;;;;;17.25;9.13;;;;;;;-4.69;100.00;95438.19;4973271;28;20034;-54
2022/03/02 02:23:19;;;;;;;20.05;9.98;;;;;;;-4.71;100.00;95443.59;4973869;28;20025;-59
2022/03/02 02:25:47;;;;;;;17.85;9.10;;;;;;;-4.75;100.00;95444.09;4973465;28;20033;-57
2022/03/02 02:28:21;;;;;;;17.70;9.50;;;;;;;-4.80;100.00;95446.34;4972776;28;20444;-54
2022/03/02 02:30:47;;;;;;;18.05;8.98;;;;;;;-4.85;100.00;95449.47;4973942;28;20058;-59
2022/03/02 02:33:13;;;;;;;18.13;9.50;;;;;;;-4.92;100.00;95448.44;4972311;28;20058;-56
2022/03/02 02:35:41;;;;;;;17.98;9.35;;;;;;;-4.99;100.00;95448.28;4973651;28;20419;-51
2022/03/02 02:38:14;;;;;;;18.20;9.45;;;;;;;-5.03;100.00;95444.34;4973629;28;20027;-56
2022/03/02 02:40:39;;;;;;;16.70;8.98;;;;;;;-5.07;100.00;95447.44;4972814;28;20076;-56
2022/03/02 02:43:16;;;;;;;17.05;8.60;;;;;;;-5.09;100.00;95446.81;4985890;28;20062;-56
2022/03/02 02:45:41;;;;;;;15.95;8.68;;;;;;;-5.12;100.00;95449.72;4973179;28;20053;-56
2022/03/02 02:48:07;;;;;;;17.30;8.52;;;;;;;-5.13;100.00;95445.47;4969705;28;20466;-58
2022/03/02 02:50:34;;;;;;;17.38;9.00;;;;;;;-5.15;100.00;95448.25;4973708;28;20457;-56
2022/03/02 02:53:03;;;;;;;16.85;8.80;;;;;;;-5.17;100.00;95450.19;4969412;28;20043;-58
2022/03/02 02:55:29;;;;;;;14.90;8.80;;;;;;;-5.14;100.00;95454.28;4989042;28;20521;-55
2022/03/02 02:58:04;;;;;;;17.25;8.85;;;;;;;-5.16;100.00;95456.25;4972432;28;20393;-56
2022/03/02 03:00:35;;;;;;;16.80;8.35;;;;;;;-5.19;100.00;95467.81;4973299;28;20530;-58
2022/03/02 03:03:01;;;;;;;19.73;9.35;;;;;;;-5.23;100.00;95463.06;4970995;28;20109;-60
2022/03/02 03:05:29;;;;;;;20.52;9.65;;;;;;;-5.28;100.00;95469.59;4973342;28;20109;-60
2022/03/02 03:07:55;;;;;;;17.33;8.88;;;;;;;-5.31;100.00;95472.53;4973541;28;20023;-60
2022/03/02 03:10:21;;;;;;;19.02;9.82;;;;;;;-5.33;100.00;95474.44;4973042;28;20023;-60
2022/03/02 03:12:47;;;;;;;15.77;8.90;;;;;;;-5.39;100.00;95475.09;4988248;28;20478;-60
2022/03/02 03:15:17;;;;;;;17.73;8.88;;;;;;;-5.43;100.00;95493.81;4972477;28;20030;-60
2022/03/02 03:17:49;;;;;;;21.33;9.13;;;;;;;-5.42;100.00;95487.66;4973221;28;20037;-59
2022/03/02 03:20:20;;;;;;;18.13;9.68;;;;;;;-5.42;100.00;95472.81;4973310;28;20069;-59
2022/03/02 03:22:46;;;;;;;17.10;9.75;;;;;;;-5.43;100.00;95476.38;4972563;28;20046;-58
2022/03/02 03:25:24;;;;;;;19.65;9.50;;;;;;;-5.44;100.00;95473.91;4971996;28;20490;-58
2022/03/02 03:27:53;;;;;;;19.52;8.98;;;;;;;-5.37;100.00;95467.09;4972613;28;20093;-58
2022/03/02 03:30:21;;;;;;;19.25;10.30;;;;;;;-5.21;100.00;95472.41;4970434;28;20023;-59
2022/03/02 03:32:47;;;;;;;21.55;10.27;;;;;;;-5.18;100.00;95479.09;4971933;28;20046;-60
2022/03/02 03:35:24;;;;;;;18.83;9.27;;;;;;;-5.15;100.00;95484.81;4971760;28;20035;-56
2022/03/02 03:37:54;;;;;;;20.23;9.77;;;;;;;-5.10;100.00;95481.69;4978856;28;20122;-59
2022/03/02 03:40:21;;;;;;;17.58;9.75;;;;;;;-5.09;100.00;95489.41;4966271;28;20125;-58
2022/03/02 03:42:55;;;;;;;18.50;10.02;;;;;;;-5.09;100.00;95488.59;4976848;28;20022;-60
2022/03/02 03:45:21;;;;;;;22.65;10.45;;;;;;;-5.09;100.00;95493.81;4987333;28;20033;-59
2022/03/02 03:47:47;;;;;;;18.48;9.98;;;;;;;-5.05;100.00;95492.50;4976685;28;20106;-59
2022/03/02 03:50:16;;;;;;;20.10;10.52;;;;;;;-5.05;100.00;95500.34;4975556;28;20022;-57
2022/03/02 03:52:42;;;;;;;17.00;9.65;;;;;;;-5.09;100.00;95499.03;4969536;28;20042;-57
2022/03/02 03:55:12;;;;;;;18.33;9.48;;;;;;;-5.14;100.00;95501.28;4975483;28;20058;-55
2022/03/02 03:57:38;;;;;;;18.85;9.10;;;;;;;-5.21;100.00;95495.91;4975480;28;20066;-56
2022/03/02 04:00:19;;;;;;;20.83;10.85;;;;;;;-5.29;100.00;95499.28;4990909;28;20050;-57
2022/03/02 04:02:48;;;;;;;18.38;9.55;;;;;;;-5.36;100.00;95506.09;4975828;28;20035;-59
2022/03/02 04:05:25;;;;;;;21.60;10.15;;;;;;;-5.43;100.00;95505.06;4976126;28;20026;-58
2022/03/02 04:07:53;;;;;;;18.23;9.70;;;;;;;-5.46;100.00;95508.00;4976409;28;20047;-60
2022/03/02 04:10:21;;;;;;;22.02;9.98;;;;;;;-5.52;100.00;95505.22;4972433;28;20030;-57
2022/03/02 04:12:50;;;;;;;19.38;9.75;;;;;;;-5.56;100.00;95509.91;4976206;28;20065;-59
2022/03/02 04:15:20;;;;;;;19.23;9.73;;;;;;;-5.58;100.00;95502.25;4975708;28;20445;-57
2022/03/02 04:17:46;;;;;;;17.08;9.55;;;;;;;-5.61;100.00;95499.94;4975952;28;20034;-55
2022/03/02 04:20:14;;;;;;;17.17;9.23;;;;;;;-5.64;100.00;95510.72;4976253;28;20139;-58
2022/03/02 04:22:39;;;;;;;18.50;9.68;;;;;;;-5.66;100.00;95509.19;4975319;28;20030;-57
2022/03/02 04:25:05;;;;;;;18.98;9.02;;;;;;;-5.65;100.00;95508.22;4976295;28;20117;-59
2022/03/02 04:27:31;;;;;;;16.15;8.98;;;;;;;-5.66;100.00;95512.63;4975361;28;20022;-57
2022/03/02 04:29:59;;;;;;;16.27;9.15;;;;;;;-5.68;100.00;95514.56;4976117;28;20023;-58
2022/03/02 04:32:30;;;;;;;18.20;9.82;;;;;;;-5.70;100.00;95507.88;4974717;28;20097;-59
2022/03/02 04:34:57;;;;;;;18.80;9.15;;;;;;;-5.71;100.00;95520.13;4975230;28;20023;-58
2022/03/02 04:37:23;;;;;;;16.70;8.68;;;;;;;-5.71;100.00;95519.31;4975818;28;20034;-57
2022/03/02 04:39:48;;;;;;;18.80;9.95;;;;;;;-5.74;100.00;95517.81;4984468;28;20026;-58
2022/03/02 04:42:23;;;;;;;15.77;8.73;;;;;;;-5.78;100.00;95513.03;4975805;28;20035;-58
2022/03/02 04:44:48;;;;;;;18.70;9.38;;;;;;;-5.78;100.00;95516.47;4984033;28;20034;-56
2022/03/02 04:47:17;;;;;;;18.60;9.05;;;;;;;-5.75;100.00;95515.34;4975327;28;20093;-57
2022/03/02 04:49:42;;;;;;;17.17;9.13;;;;;;;-5.78;100.00;95521.69;4974567;28;20027;-56
2022/03/02 04:52:10;;;;;;;19.33;9.63;;;;;;;-5.81;100.00;95519.41;4974392;28;20026;-57
2022/03/02 04:57:23;;;;;;;19.85;9.27;;;;;;;-5.83;100.00;95516.13;4995801;28;20041;-58
2022/03/02 04:59:54;;;;;;;17.67;8.85;;;;;;;-5.80;100.00;95526.25;4997892;28;20038;-57
2022/03/02 05:02:23;;;;;;;16.30;8.43;;;;;;;-5.77;100.00;95530.34;4997840;28;20026;-56
2022/03/02 05:04:49;;;;;;;17.25;8.43;;;;;;;-5.81;100.00;95524.63;4997243;28;20022;-55
2022/03/02 05:07:15;;;;;;;17.17;9.50;;;;;;;-5.78;100.00;95526.09;5013862;28;20524;-56
2022/03/02 05:09:41;;;;;;;15.55;8.43;;;;;;;-5.75;100.00;95525.78;4998356;28;20386;-58
2022/03/02 05:12:10;;;;;;;18.98;8.57;;;;;;;-5.68;100.00;95527.63;4998939;28;20030;-55
2022/03/02 05:14:35;;;;;;;16.80;8.95;;;;;;;-5.66;100.00;95533.50;4998308;28;20105;-58
2022/03/02 05:17:04;;;;;;;16.48;8.68;;;;;;;-5.64;100.00;95526.38;4996594;28;20426;-57
2022/03/02 05:19:29;;;;;;;18.05;8.73;;;;;;;-5.63;100.00;95533.22;4998694;28;20030;-57
2022/03/02 05:21:55;;;;;;;17.42;8.82;;;;;;;-5.68;100.00;95530.22;5012841;28;20022;-58
2022/03/02 05:24:20;;;;;;;17.92;9.25;;;;;;;-5.71;100.00;95516.69;4997967;28;20018;-57
2022/03/02 05:26:45;;;;;;;19.77;9.40;;;;;;;-5.77;100.00;95515.50;4998153;28;20468;-56
2022/03/02 05:29:11;;;;;;;16.52;8.68;;;;;;;-5.80;100.00;95509.78;4998540;28;20030;-56
2022/03/02 05:31:37;;;;;;;17.10;8.48;;;;;;;-5.82;100.00;95512.53;5015552;28;20030;-61
2022/03/02 05:34:02;;;;;;;14.93;7.93;;;;;;;-5.87;100.00;95504.34;5018306;28;20050;-59
2022/03/02 05:36:28;;;;;;;15.73;8.20;;;;;;;-5.91;100.00;95501.28;5013815;28;20043;-55
2022/03/02 05:38:54;;;;;;;18.30;7.88;;;;;;;-5.94;100.00;95501.59;4997690;28;20448;-57
2022/03/02 05:41:25;;;;;;;16.20;8.18;;;;;;;-5.90;100.00;95504.69;4996392;28;20114;-59
2022/03/02 05:43:53;;;;;;;17.02;8.65;;;;;;;-5.82;100.00;95509.13;4997268;28;20030;-58
2022/03/02 05:46:19;;;;;;;16.98;8.23;;;;;;;-5.76;100.00;95524.97;4983121;28;20102;-60
2022/03/02 05:48:44;;;;;;;18.92;8.88;;;;;;;-5.76;100.00;95524.97;4999358;28;20493;-60
2022/03/02 05:51:09;;;;;;;16.33;7.78;;;;;;;-5.75;100.00;95537.06;4994776;28;20899;-59
2022/03/02 05:53:35;;;;;;;15.52;8.70;;;;;;;-5.76;100.00;95535.41;4992452;28;20050;-59
2022/03/02 05:56:00;;;;;;;17.58;8.68;;;;;;;-5.80;100.00;95543.69;4994090;28;20030;-61
2022/03/02 05:58:25;;;;;;;16.77;8.43;;;;;;;-5.89;100.00;95548.84;4994293;28;20085;-61
2022/03/02 06:00:51;;;;;;;15.02;8.18;;;;;;;-5.99;100.00;95553.38;5010059;28;20541;-60
2022/03/02 06:03:17;;;;;;;15.82;8.05;;;;;;;-6.06;100.00;95549.75;5012493;28;20365;-58
2022/03/02 06:05:42;;;;;;;14.85;8.05;;;;;;;-6.16;100.00;95552.44;5018049;28;20033;-61
2022/03/02 06:08:09;;;;;;;18.38;7.20;;;;;;;-6.10;100.00;95545.78;5010066;28;20396;-61
2022/03/02 06:10:36;;;;;;;15.40;7.53;;;;;;;-5.97;100.00;95548.00;4948527;28;20026;-61
2022/03/02 06:13:04;;;;;;;17.33;8.52;;;;;;;-5.93;100.00;95551.97;5007830;28;20481;-59
2022/03/02 06:15:30;;;;;;;14.77;8.50;;;;;;;-5.94;100.00;95552.94;4993573;28;20469;-61
2022/03/02 06:17:56;;;;;;;15.00;7.78;;;;;;;-5.93;100.00;95558.00;4993120;28;20038;-61
2022/03/02 06:20:24;;;;;;;16.58;8.20;;;;;;;-5.96;100.00;95560.09;4993966;28;20117;-60
2022/03/02 06:22:50;;;;;;;16.13;8.13;;;;;;;-6.00;100.00;95556.94;4990655;28;20096;-61
2022/03/02 06:25:16;;;;;;;15.27;7.80;;;;;;;-5.98;100.00;95556.78;4993582;28;20489;-61
2022/03/02 06:27:47;;;;;;;17.50;7.93;;;;;;;-5.90;100.00;95556.84;4992776;28;20034;-61
2022/03/02 06:30:13;;;;;;;15.70;7.15;;;;;;;-5.84;100.00;95551.84;4992657;28;20027;-61
2022/03/02 06:32:38;;;;;;;14.38;8.25;;;;;;;-5.75;100.00;95557.09;4992005;28;20022;-59
2022/03/02 06:35:06;;;;;;;15.05;8.02;;;;;;;-5.74;100.00;95551.75;4992355;28;20034;-58
2022/03/02 06:37:34;;;;;;;17.50;8.30;;;;;;;-5.68;100.00;95563.34;4990528;28;20061;-61
2022/03/02 06:40:02;;;;;;;16.63;7.97;;;;;;;-5.62;100.00;95566.16;4973896;28;20374;-59
2022/03/02 06:42:59;;;;;;;15.73;7.72;;;;;;;-5.58;100.00;95558.84;4991378;28;20018;-60
2022/03/02 06:45:43;;;;;;;14.25;7.80;;;;;;;-5.55;100.00;95551.50;4992365;28;20014;-60
2022/03/02 06:48:19;;;;;;;16.27;8.20;;;;;;;-5.50;100.00;95558.91;4988354;28;20022;-58
2022/03/02 06:50:52;;;;;;;14.65;7.30;;;;;;;-5.46;100.00;95557.59;5007892;28;20100;-60
2022/03/02 06:53:28;;;;;;;17.38;8.07;;;;;;;-5.39;100.00;95560.41;4990694;28;20543;-58
2022/03/02 06:55:55;;;;;;;16.17;7.82;;;;;;;-5.29;100.00;95554.13;4992448;28;20034;-59
2022/03/02 06:58:21;;;;;;;15.63;7.85;;;;;;;-5.12;100.00;95555.00;4991299;28;20026;-57
2022/03/02 07:00:52;;;;;;;14.13;7.65;;;;;;;-4.99;100.00;95552.78;4992281;28;20023;-57
2022/03/02 07:03:21;;;;;;;14.38;8.05;;;;;;;-4.79;100.00;95552.50;4991807;28;20029;-59
2022/03/02 07:05:47;;;;;;;16.13;8.18;;;;;;;-4.58;100.00;95554.69;4990419;28;20103;-60
2022/03/02 07:08:15;;;;;;;20.80;8.38;;;;;;;-4.37;100.00;95553.25;4990085;28;20113;-60
2022/03/02 07:10:41;;;;;;;14.55;8.50;;;;;;;-4.15;100.00;95554.41;4990934;28;20030;-59
2022/03/02 07:13:06;;;;;;;16.17;7.88;;;;;;;-3.97;100.00;95561.31;4993470;28;20026;-61
2022/03/02 07:15:33;;;;;;;18.92;8.27;;;;;;;-3.83;100.00;95564.06;4995138;28;20030;-60
2022/03/02 07:18:02;;;;;;;16.58;8.57;;;;;;;-3.70;100.00;95557.50;5012181;28;20033;-59
2022/03/02 07:20:28;;;;;;;16.52;8.02;;;;;;;-3.61;100.00;95553.91;4932836;28;20034;-60
2022/03/02 07:22:56;;;;;;;16.17;7.55;;;;;;;-3.48;100.00;95556.00;5009483;28;20022;-60
2022/03/02 07:25:27;;;;;;;16.00;8.02;;;;;;;-3.39;100.00;95555.00;4996792;28;20104;-60
2022/03/02 07:27:57;;;;;;;15.43;8.30;;;;;;;-3.32;100.00;95548.13;4996234;28;20026;-61
2022/03/02 07:30:23;;;;;;;14.75;7.68;;;;;;;-3.23;100.00;95550.56;5008211;28;20512;-61
2022/03/02 07:32:54;;;;;;;16.70;8.20;;;;;;;-3.11;100.00;95552.81;4996807;28;20416;-57
2022/03/02 07:35:25;;;;;;;14.90;7.57;;;;;;;-2.97;100.00;95552.91;4997027;28;20030;-61
2022/03/02 07:37:53;;;;;;;19.73;8.77;;;;;;;-2.78;100.00;95554.31;4996697;28;20046;-54
2022/03/02 07:40:24;;;;;;;18.25;8.65;;;;;;;-2.47;100.00;95548.28;5010655;28;20133;-53
2022/03/02 07:42:50;;;;;;;14.75;7.88;;;;;;;-2.27;100.00;95551.28;4996421;28;20505;-52
2022/03/02 07:45:16;;;;;;;15.48;7.53;;;;;;;-2.06;100.00;95556.72;5010502;28;20026;-53
2022/03/02 07:47:42;;;;;;;16.55;8.60;;;;;;;-1.91;100.00;95562.00;4995218;28;20022;-52
2022/03/02 07:50:09;;;;;;;19.88;8.18;;;;;;;-1.82;100.00;95553.88;4996260;28;20026;-51
2022/03/02 07:52:36;;;;;;;17.05;7.22;;;;;;;-1.68;100.00;95547.03;4993782;28;20926;-53
2022/03/02 07:55:07;;;;;;;17.90;8.57;;;;;;;-1.37;100.00;95540.84;5025368;28;20046;-53
2022/03/02 07:57:42;;;;;;;16.55;9.07;;;;;;;-1.01;100.00;95533.03;4990780;28;20030;-52
2022/03/02 08:00:11;;;;;;;16.27;8.27;;;;;;;-0.61;100.00;95522.03;4995433;28;20035;-55
2022/03/02 08:02:40;;;;;;;16.33;8.05;;;;;;;-0.18;100.00;95524.72;5027064;28;20394;-56
2022/03/02 08:05:12;;;;;;;17.83;9.32;;;;;;;0.24;100.00;95508.09;5022801;28;20086;-58
2022/03/02 08:07:38;;;;;;;17.17;7.60;;;;;;;0.53;100.00;95488.63;4996562;28;20055;-61
2022/03/02 08:10:05;;;;;;;13.10;7.95;;;;;;;0.79;100.00;95477.44;4995536;28;20092;-59
2022/03/02 08:12:31;;;;;;;15.30;7.57;;;;;;;1.12;100.00;95459.16;5009556;28;20042;-57
2022/03/02 08:15:00;;;;;;;12.77;6.47;;;;;;;1.47;100.00;95431.84;5010730;28;20029;-62
2022/03/02 08:17:28;;;;;;;13.93;6.72;;;;;;;1.67;100.00;95406.31;5027687;28;20535;-59
2022/03/02 08:20:00;;;;;;;15.73;6.72;;;;;;;1.78;100.00;95383.75;5011218;28;20034;-62
2022/03/02 08:22:30;;;;;;;11.40;6.53;;;;;;;2.05;100.00;95353.66;4993555;28;20022;-60
2022/03/02 08:25:12;;;;;;;16.80;6.53;;;;;;;2.41;100.00;95326.78;4995620;28;20489;-66
2022/03/02 08:27:43;;;;;;;10.77;6.30;;;;;;;2.69;100.00;95299.19;4994147;28;20026;-61
2022/03/02 08:30:11;;;;;;;12.30;6.25;;;;;;;3.02;100.00;95281.31;4995924;28;20093;-61
2022/03/02 08:32:41;;;;;;;13.45;6.60;;;;;;;3.17;100.00;95270.47;5010525;28;20022;-64
2022/03/02 08:35:11;;;;;;;9.80;5.78;;;;;;;3.40;100.00;95267.22;4960194;28;117322;-62
2022/03/02 08:37:36;;;;;;;13.73;6.72;;;;;;;3.56;100.00;95273.81;4998918;28;20033;-61
2022/03/02 08:40:04;;;;;;;11.10;6.18;;;;;;;3.77;100.00;95294.63;5009639;28;20477;-62
2022/03/02 08:42:31;;;;;;;12.93;7.25;;;;;;;4.00;100.00;95345.16;4992678;28;20049;-61
2022/03/02 08:44:57;;;;;;;12.23;6.50;;;;;;;4.13;100.00;95388.53;4959975;28;20019;-62
2022/03/02 08:47:28;;;;;;;11.90;6.75;;;;;;;4.18;100.00;95436.38;4994741;28;20034;-60
2022/03/02 08:49:57;;;;;;;10.68;6.70;;;;;;;4.27;100.00;95499.53;4995164;28;20033;-62
2022/03/02 08:52:28;;;;;;;11.98;6.60;;;;;;;4.53;100.00;95540.16;4994098;28;20065;-61
2022/03/02 08:55:00;;;;;;;12.00;7.05;;;;;;;4.74;100.00;95579.59;4994837;28;20082;-61
2022/03/02 08:57:31;;;;;;;11.07;6.73;;;;;;;4.78;100.00;95620.59;4994504;28;20026;-60
2022/03/02 08:59:58;;;;;;;12.18;7.05;;;;;;;4.79;100.00;95645.31;5010050;28;20034;-57
2022/03/02 09:02:24;;;;;;;12.27;7.35;;;;;;;4.81;100.00;95670.59;4995059;28;20066;-60
2022/03/02 09:04:50;;;;;;;13.38;7.43;;;;;;;5.07;100.00;95687.34;4992880;28;20064;-59
2022/03/02 09:07:20;;;;;;;14.30;7.53;;;;;;;5.11;100.00;95715.94;5009873;28;20030;-58
2022/03/02 09:09:46;;;;;;;11.70;7.05;;;;;;;5.09;100.00;95733.09;5008715;28;20065;-59
2022/03/02 09:12:15;;;;;;;15.60;6.88;;;;;;;5.17;100.00;95746.91;4993232;28;20054;-58
2022/03/02 09:14:40;;;;;;;11.18;6.40;;;;;;;5.38;100.00;95753.72;4994520;28;20062;-57
2022/03/02 09:17:06;;;;;;;13.77;6.63;;;;;;;5.61;100.00;95781.56;4993598;28;20068;-59
2022/03/02 09:19:32;;;;;;;9.30;6.28;;;;;;;5.91;100.00;95795.03;4994574;28;20026;-60
2022/03/02 09:21:58;;;;;;;13.93;6.55;;;;;;;6.08;100.00;95822.72;4992623;28;20029;-60
2022/03/02 09:24:28;;;;;;;13.90;7.25;;;;;;;5.99;100.00;95832.81;4994408;28;20026;-60
2022/03/02 09:26:55;;;;;;;10.05;6.10;;;;;;;6.05;100.00;95852.38;4994512;28;20155;-59
2022/03/02 09:29:22;;;;;;;9.95;6.60;;;;;;;5.87;100.00;95866.44;4992727;28;20109;-58
2022/03/02 09:31:50;;;;;;;10.25;6.75;;;;;;;5.95;99.18;95882.13;4994412;28;20575;-59
2022/03/02 09:34:29;;;;;;;15.60;6.43;;;;;;;6.10;96.36;95893.28;4993384;28;20034;-61
2022/03/02 09:36:56;;;;;;;11.40;6.18;;;;;;;6.19;94.32;95904.47;4993942;28;20041;-59
2022/03/02 09:39:23;;;;;;;9.88;5.35;;;;;;;6.25;92.55;95914.22;4993612;28;20508;-58
2022/03/02 09:42:16;;;;;;;10.50;6.20;;;;;;;6.38;91.36;95919.44;4994216;28;20030;-60
2022/03/02 09:44:44;;;;;;;11.15;5.55;;;;;;;6.43;88.23;95933.94;5006225;28;20026;-59
2022/03/02 09:47:21;;;;;;;9.30;5.90;;;;;;;6.62;87.89;95932.94;4991338;28;20165;-60
2022/03/02 09:49:57;;;;;;;9.88;5.43;;;;;;;6.72;87.59;95938.56;4993967;28;20165;-62
2022/03/02 09:52:30;;;;;;;8.73;5.43;;;;;;;6.76;84.83;95952.28;4992367;28;20125;-61
2022/03/02 09:54:58;;;;;;;8.77;5.72;;;;;;;6.82;82.72;95957.53;4982901;28;20053;-60
2022/03/02 09:57:27;;;;;;;10.20;5.72;;;;;;;6.96;81.76;95969.69;4990957;28;20030;-61
2022/03/02 09:59:55;;;;;;;9.52;5.55;;;;;;;7.13;81.92;95974.44;4992062;28;20057;-62
2022/03/02 10:02:41;;;;;;;18.60;5.85;;;;;;;7.10;81.00;95975.69;4992173;28;20032;-60
2022/03/02 10:05:32;;;;;;;9.25;5.75;;;;;;;7.30;80.75;95986.13;4991307;28;20021;-61
2022/03/02 10:08:00;;;;;;;8.95;5.63;;;;;;;7.66;81.35;95973.81;4992328;28;20033;-63
2022/03/02 10:10:33;;;;;;;9.95;6.03;;;;;;;7.89;79.81;95983.78;5007333;28;20026;-59
2022/03/02 10:13:25;;;;;;;10.43;5.85;;;;;;;8.13;77.77;95991.63;4992713;28;20022;-62
2022/03/02 10:15:52;;;;;;;12.13;6.30;;;;;;;7.95;76.46;96002.38;4986462;28;20036;-60
2022/03/02 10:18:18;;;;;;;10.90;6.75;;;;;;;8.12;78.43;95987.34;4993518;28;20022;-61
2022/03/02 10:20:49;;;;;;;11.40;6.65;;;;;;;8.32;78.78;95984.38;4988657;28;20441;-59
2022/03/02 10:23:36;;;;;;;16.98;7.63;;;;;;;8.48;76.69;95982.16;4991649;28;20025;-62
2022/03/02 10:26:19;;;;;;;11.57;7.60;;;;;;;8.41;76.27;95979.56;4988596;28;20023;-60
2022/03/02 10:29:00;;;;;;;;;;;;;;;8.46;76.99;95974.34;4990249;28;20041;-61
2022/03/02 10:31:43;;;;;;;12.10;7.63;;;;;;;8.43;77.61;95972.13;4992057;28;19917;-61
2022/03/02 10:34:26;;;;;;;14.77;8.57;;;;;;;8.53;78.23;95963.56;4990992;28;20026;-60
2022/03/02 10:37:20;;;;;;;13.20;8.50;;;;;;;8.71;78.05;95966.16;4991573;28;20464;-60
2022/03/02 10:39:56;;;;;;;16.42;8.77;;;;;;;8.79;77.93;95970.31;4992592;28;20030;-57
2022/03/02 10:42:28;;;;;;;13.75;8.70;;;;;;;8.82;78.63;95965.34;4990588;28;20022;-58
2022/03/02 10:45:11;;;;;;;13.13;9.18;;;;;;;9.03;79.03;95960.47;4980213;28;20026;-62
2022/03/02 10:48:14;;;;;;;13.65;9.25;;;;;;;9.30;78.82;95970.41;4982218;28;20138;-59
2022/03/02 10:50:42;;;;;;;14.35;8.57;;;;;;;9.69;78.44;95968.00;4970367;28;20046;-56
2022/03/02 10:53:16;;;;;;;16.55;9.10;;;;;;;9.81;76.19;95965.28;5000497;23;20146;-66
2022/03/02 10:55:44;;;;;;;13.68;9.13;;;;;;;9.78;75.22;95966.59;4971669;28;20077;-67
2022/03/02 10:58:14;;;;;;;13.93;9.57;;;;;;;9.62;76.10;95953.13;4983740;28;20046;-67
2022/03/02 11:00:41;;;;;;;16.33;9.82;;;;;;;9.66;76.81;95951.59;4982902;28;20389;-66
2022/03/02 11:03:07;;;;;;;13.68;9.30;;;;;;;9.83;75.57;95944.47;4980877;28;20038;-66
2022/03/02 11:05:36;;;;;;;13.75;8.88;;;;;;;9.88;75.71;95952.59;4972601;28;20382;-66
2022/03/02 11:08:03;;;;;;;15.70;10.13;;;;;;;9.90;76.34;95947.81;4988718;28;20026;-66
2022/03/02 11:10:37;;;;;;;14.77;8.88;;;;;;;10.10;74.58;95950.88;4988355;28;20037;-67
2022/03/02 11:13:15;;;;;;;16.35;8.90;;;;;;;10.09;73.44;95948.41;4986626;28;20074;-67
2022/03/02 11:16:18;;;;;;;16.27;9.38;;;;;;;9.80;73.88;95939.59;4980491;28;20118;-67
2022/03/02 11:18:48;;;;;;;15.63;9.48;;;;;;;9.62;75.04;95939.75;4968829;28;20117;-67
2022/03/02 11:21:21;;;;;;;13.10;9.40;;;;;;;9.84;76.42;95927.34;4990192;28;20460;-66
2022/03/02 11:23:51;;;;;;;;;;;;;;;9.85;75.57;95929.78;4974252;28;20026;-67
2022/03/02 11:26:32;;;;;;;13.77;9.13;;;;;;;9.74;77.13;95925.28;4967717;28;20296;-67
2022/03/02 11:29:07;;;;;;;18.23;9.63;;;;;;;9.47;78.23;95922.38;5006202;28;20026;-67
2022/03/02 11:31:40;;;;;;;16.38;9.60;;;;;;;9.49;77.98;95914.13;4992665;28;20030;-67
2022/03/02 11:34:26;;;;;;;15.50;10.05;;;;;;;9.65;78.17;95910.66;4985139;28;20461;-67